createdAt,value
2022-08-10T00:00:22.488Z,13.60
2022-08-10T00:01:55.916Z,13.60
2022-08-10T00:03:29.442Z,13.50
2022-08-10T00:05:03.232Z,13.50
2022-08-10T00:06:36.412Z,13.40
2022-08-10T00:08:09.533Z,13.40
2022-08-10T00:09:50.563Z,13.40
2022-08-10T00:11:24.678Z,13.50
2022-08-10T00:12:58.026Z,13.50
2022-08-10T00:14:30.268Z,13.50
2022-08-10T00:16:03.517Z,13.50
2022-08-10T00:17:37.045Z,13.40
2022-08-10T00:19:10.640Z,13.40
2022-08-10T00:20:44.108Z,13.30
2022-08-10T00:22:17.253Z,13.30
2022-08-10T00:23:50.408Z,13.30
2022-08-10T00:25:22.584Z,13.30
2022-08-10T00:27:52.603Z,13.30
2022-08-10T00:28:48.805Z,13.20
2022-08-10T00:30:21.185Z,13.20
2022-08-10T00:31:58.986Z,13.20
2022-08-10T00:33:32.506Z,13.30
2022-08-10T00:35:06.808Z,13.40
2022-08-10T00:36:39.936Z,13.50
2022-08-10T00:38:13.189Z,13.50
2022-08-10T00:39:47.360Z,13.50
2022-08-10T00:41:20.577Z,13.40
2022-08-10T00:42:56.970Z,13.30
2022-08-10T00:44:30.105Z,13.30
2022-08-10T00:46:04.108Z,13.20
2022-08-10T00:47:37.810Z,13.20
2022-08-10T00:49:11.114Z,13.20
2022-08-10T00:50:45.676Z,13.20
2022-08-10T00:52:20.789Z,13.20
2022-08-10T00:53:53.936Z,13.20
2022-08-10T00:55:28.225Z,13.20
2022-08-10T00:57:17.524Z,13.20
2022-08-10T00:58:51.697Z,13.10
2022-08-10T01:00:25.191Z,13.00
2022-08-10T01:02:09.501Z,13.00
2022-08-10T01:04:36.311Z,13.00
2022-08-10T01:05:51.386Z,12.90
2022-08-10T01:07:43.085Z,12.90
2022-08-10T01:09:24.899Z,12.90
2022-08-10T01:12:27.668Z,12.90
2022-08-10T01:13:10.532Z,12.80
2022-08-10T01:14:52.945Z,12.80
2022-08-10T01:16:30.560Z,12.70
2022-08-10T01:18:08.540Z,12.60
2022-08-10T01:19:58.498Z,12.60
2022-08-10T01:22:07.872Z,12.50
2022-08-10T01:24:15.614Z,12.40
2022-08-10T01:26:11.767Z,12.40
2022-08-10T01:27:56.656Z,12.50
2022-08-10T01:29:49.225Z,12.50
2022-08-10T01:31:28.846Z,12.30
2022-08-10T01:33:08.284Z,12.20
2022-08-10T01:34:45.167Z,12.20
2022-08-10T01:36:31.842Z,12.10
2022-08-10T01:38:09.952Z,12.10
2022-08-10T01:39:48.162Z,12.10
2022-08-10T01:41:26.117Z,12.20
2022-08-10T01:43:07.916Z,12.20
2022-08-10T01:44:49.008Z,12.20
2022-08-10T01:46:25.117Z,12.20
2022-08-10T01:48:18.051Z,12.20
2022-08-10T01:49:54.083Z,12.20
2022-08-10T01:51:32.720Z,12.20
2022-08-10T01:53:09.520Z,12.10
2022-08-10T01:54:44.584Z,12.10
2022-08-10T01:56:18.985Z,12.10
2022-08-10T01:57:53.608Z,12.10
2022-08-10T01:59:32.207Z,12.10
2022-08-10T02:01:08.787Z,12.10
2022-08-10T02:02:45.030Z,12.00
2022-08-10T02:04:20.601Z,12.00
2022-08-10T02:05:55.609Z,12.00
2022-08-10T02:07:31.609Z,12.00
2022-08-10T02:09:07.618Z,11.90
2022-08-10T02:10:43.907Z,11.90
2022-08-10T02:12:21.283Z,11.90
2022-08-10T02:13:54.813Z,11.90
2022-08-10T02:15:33.551Z,11.90
2022-08-10T02:17:59.431Z,11.90
2022-08-10T02:19:06.378Z,11.90
2022-08-10T02:20:47.428Z,11.80
2022-08-10T02:22:36.155Z,11.80
2022-08-10T02:24:13.757Z,11.80
2022-08-10T02:25:47.171Z,11.80
2022-08-10T02:27:22.348Z,11.80
2022-08-10T02:28:56.581Z,11.80
2022-08-10T02:30:30.514Z,11.80
2022-08-10T02:32:05.625Z,11.80
2022-08-10T02:33:56.556Z,11.70
2022-08-10T02:35:42.170Z,11.70
2022-08-10T02:37:27.686Z,11.70
2022-08-10T02:39:05.528Z,11.70
2022-08-10T02:45:14.006Z,11.60
2022-08-10T02:45:19.059Z,11.60
2022-08-10T02:45:19.470Z,11.60
2022-08-10T02:46:53.252Z,11.70
2022-08-10T02:48:35.773Z,11.70
2022-08-10T02:50:15.974Z,11.70
2022-08-10T02:52:06.584Z,11.70
2022-08-10T02:53:56.155Z,11.60
2022-08-10T02:55:36.563Z,11.60
2022-08-10T02:57:15.328Z,11.60
2022-08-10T02:58:57.593Z,11.60
2022-08-10T03:00:31.587Z,11.50
2022-08-10T03:02:07.294Z,11.50
2022-08-10T03:03:48.401Z,11.50
2022-08-10T03:05:23.106Z,11.40
2022-08-10T03:07:03.771Z,11.40
2022-08-10T03:08:42.225Z,11.40
2022-08-10T03:10:17.699Z,11.30
2022-08-10T03:12:35.711Z,11.30
2022-08-10T03:13:52.433Z,11.30
2022-08-10T03:15:37.251Z,11.40
2022-08-10T03:17:11.229Z,11.40
2022-08-10T03:18:45.776Z,11.40
2022-08-10T03:20:37.956Z,11.40
2022-08-10T03:22:13.627Z,11.40
2022-08-10T03:23:47.433Z,11.40
2022-08-10T03:25:24.773Z,11.50
2022-08-10T03:26:59.280Z,11.50
2022-08-10T03:28:33.290Z,11.40
2022-08-10T03:30:29.511Z,11.30
2022-08-10T03:32:03.614Z,11.30
2022-08-10T03:33:39.765Z,11.30
2022-08-10T03:35:13.775Z,11.20
2022-08-10T03:36:48.600Z,11.20
2022-08-10T03:38:22.465Z,11.20
2022-08-10T03:39:56.063Z,11.10
2022-08-10T03:41:35.595Z,11.10
2022-08-10T03:43:12.611Z,11.10
2022-08-10T03:44:50.351Z,11.10
2022-08-10T03:46:26.211Z,11.10
2022-08-10T03:48:00.032Z,11.10
2022-08-10T03:49:34.428Z,11.10
2022-08-10T03:51:08.465Z,11.10
2022-08-10T03:52:42.965Z,11.10
2022-08-10T03:54:16.692Z,11.10
2022-08-10T03:56:28.844Z,11.10
2022-08-10T03:57:49.718Z,11.10
2022-08-10T03:59:23.455Z,11.10
2022-08-10T04:00:56.138Z,11.20
2022-08-10T04:02:42.015Z,11.20
2022-08-10T04:04:24.756Z,11.20
2022-08-10T04:05:59.318Z,11.20
2022-08-10T04:07:32.820Z,11.30
2022-08-10T04:09:07.445Z,11.30
2022-08-10T04:10:39.645Z,11.40
2022-08-10T04:12:12.862Z,11.40
2022-08-10T04:13:45.137Z,11.50
2022-08-10T04:15:18.414Z,11.60
2022-08-10T04:16:51.576Z,11.60
2022-08-10T04:18:24.811Z,11.60
2022-08-10T04:19:59.507Z,11.70
2022-08-10T04:21:40.019Z,11.70
2022-08-10T04:23:17.983Z,11.80
2022-08-10T04:24:57.220Z,11.80
2022-08-10T04:26:30.709Z,11.80
2022-08-10T04:28:04.704Z,11.90
2022-08-10T04:29:38.158Z,12.00
2022-08-10T04:31:15.639Z,12.00
2022-08-10T04:32:54.899Z,12.10
2022-08-10T04:34:32.394Z,12.20
2022-08-10T04:36:09.638Z,12.30
2022-08-10T04:37:47.108Z,12.40
2022-08-10T04:39:21.995Z,12.50
2022-08-10T04:40:57.660Z,12.60
2022-08-10T04:42:30.682Z,12.70
2022-08-10T04:44:04.369Z,12.80
2022-08-10T04:45:49.357Z,13.00
2022-08-10T04:47:57.417Z,13.10
2022-08-10T04:49:55.680Z,13.20
2022-08-10T04:51:18.342Z,13.40
2022-08-10T04:52:52.572Z,13.60
2022-08-10T04:54:26.192Z,13.70
2022-08-10T04:56:03.915Z,13.80
2022-08-10T04:57:37.070Z,14.10
2022-08-10T04:59:12.412Z,14.30
2022-08-10T05:00:44.684Z,14.40
2022-08-10T05:02:28.934Z,14.60
2022-08-10T05:04:37.569Z,14.70
2022-08-10T05:05:57.571Z,14.80
2022-08-10T05:07:43.385Z,15.00
2022-08-10T05:09:27.318Z,15.20
2022-08-10T05:11:00.479Z,15.40
2022-08-10T05:12:37.478Z,15.60
2022-08-10T05:14:11.654Z,15.70
2022-08-10T05:15:45.930Z,15.70
2022-08-10T05:17:18.175Z,15.70
2022-08-10T05:18:51.353Z,15.90
2022-08-10T05:20:24.653Z,16.00
2022-08-10T05:22:04.636Z,16.10
2022-08-10T05:23:38.347Z,16.20
2022-08-10T05:25:14.371Z,16.30
2022-08-10T05:26:55.283Z,16.30
2022-08-10T05:28:41.163Z,16.40
2022-08-10T05:30:16.124Z,16.50
2022-08-10T05:31:48.483Z,16.60
2022-08-10T05:33:21.682Z,16.80
2022-08-10T05:34:54.856Z,16.90
2022-08-10T05:36:28.539Z,17.00
2022-08-10T05:38:08.860Z,17.00
2022-08-10T05:39:47.444Z,17.20
2022-08-10T05:41:21.807Z,17.30
2022-08-10T05:42:55.095Z,17.50
2022-08-10T05:44:30.376Z,17.50
2022-08-10T05:46:17.054Z,17.70
2022-08-10T05:48:54.416Z,18.00
2022-08-10T05:49:49.223Z,17.80
2022-08-10T05:51:23.120Z,18.60
2022-08-10T05:52:56.497Z,19.30
2022-08-10T05:54:29.709Z,20.20
2022-08-10T05:56:05.178Z,21.00
2022-08-10T05:57:38.540Z,20.90
2022-08-10T05:59:11.230Z,22.10
2022-08-10T06:00:54.453Z,22.80
2022-08-10T06:02:35.700Z,23.60
2022-08-10T06:04:12.868Z,23.50
2022-08-10T06:05:51.079Z,24.40
2022-08-10T06:07:32.680Z,26.00
2022-08-10T06:09:16.884Z,26.00
2022-08-10T06:12:24.215Z,26.60
2022-08-10T06:13:26.907Z,26.60
2022-08-10T06:15:04.077Z,25.20
2022-08-10T06:16:40.155Z,22.90
2022-08-10T06:18:14.802Z,22.50
2022-08-10T06:19:48.505Z,23.10
2022-08-10T06:21:22.407Z,22.00
2022-08-10T06:22:55.896Z,22.90
2022-08-10T06:24:30.767Z,22.50
2022-08-10T06:26:10.583Z,23.40
2022-08-10T06:27:48.147Z,23.50
2022-08-10T06:29:23.125Z,23.00
2022-08-10T06:30:57.773Z,24.70
2022-08-10T06:32:32.691Z,26.80
2022-08-10T06:34:05.447Z,28.60
2022-08-10T06:35:40.415Z,29.20
2022-08-10T06:37:16.598Z,28.40
2022-08-10T06:38:50.822Z,25.00
2022-08-10T06:40:27.082Z,26.60
2022-08-10T06:42:16.070Z,25.50
2022-08-10T06:43:57.725Z,25.40
2022-08-10T06:45:36.396Z,25.70
2022-08-10T06:47:11.533Z,26.70
2022-08-10T06:48:51.754Z,28.80
2022-08-10T06:50:34.843Z,29.70
2022-08-10T06:52:22.353Z,30.70
2022-08-10T06:53:59.451Z,31.10
2022-08-10T06:55:49.683Z,28.00
2022-08-10T06:57:29.404Z,26.80
2022-08-10T06:59:07.945Z,28.10
2022-08-10T07:00:48.794Z,25.80
2022-08-10T07:02:31.233Z,26.30
2022-08-10T07:04:11.697Z,26.60
2022-08-10T07:05:51.042Z,29.60
2022-08-10T07:07:28.015Z,30.30
2022-08-10T07:09:02.005Z,30.60
2022-08-10T07:10:41.174Z,28.40
2022-08-10T07:12:21.977Z,27.50
2022-08-10T07:14:17.397Z,28.70
2022-08-10T07:16:00.071Z,30.40
2022-08-10T07:17:39.463Z,30.50
2022-08-10T07:19:15.926Z,31.50
2022-08-10T07:20:50.892Z,28.60
2022-08-10T07:23:27.001Z,26.90
2022-08-10T07:24:21.408Z,27.80
2022-08-10T07:25:54.885Z,29.80
2022-08-10T07:27:29.669Z,28.10
2022-08-10T07:29:53.507Z,28.80
2022-08-10T07:31:32.941Z,30.90
2022-08-10T07:33:17.893Z,30.90
2022-08-10T07:34:54.815Z,28.80
2022-08-10T07:36:30.151Z,30.20
2022-08-10T07:38:04.923Z,31.90
2022-08-10T07:40:02.459Z,32.60
2022-08-10T07:41:35.605Z,32.80
2022-08-10T07:43:10.794Z,33.60
2022-08-10T07:44:45.609Z,35.10
2022-08-10T07:46:23.264Z,36.00
2022-08-10T07:48:06.678Z,36.30
2022-08-10T07:49:44.617Z,36.50
2022-08-10T07:51:20.920Z,36.60
2022-08-10T07:52:56.472Z,36.70
2022-08-10T07:54:32.089Z,35.50
2022-08-10T07:56:21.220Z,36.10
2022-08-10T07:58:04.085Z,36.10
2022-08-10T07:59:39.490Z,35.60
2022-08-10T08:01:14.951Z,34.70
2022-08-10T08:02:56.178Z,33.50
2022-08-10T08:04:31.239Z,30.90
2022-08-10T08:06:11.885Z,29.10
2022-08-10T08:07:47.581Z,29.30
2022-08-10T08:09:23.045Z,29.00
2022-08-10T08:10:58.145Z,29.80
2022-08-10T08:12:37.218Z,31.30
2022-08-10T08:14:13.899Z,31.70
2022-08-10T08:16:18.438Z,31.70
2022-08-10T08:17:43.069Z,32.10
2022-08-10T08:19:37.570Z,32.20
2022-08-10T08:24:05.291Z,32.00
2022-08-10T08:24:07.235Z,31.20
2022-08-10T08:25:01.603Z,31.50
2022-08-10T08:26:37.353Z,32.30
2022-08-10T08:28:11.532Z,32.10
2022-08-10T08:29:46.818Z,32.50
2022-08-10T08:31:21.381Z,32.60
2022-08-10T08:32:55.014Z,31.90
2022-08-10T08:34:28.706Z,30.10
2022-08-10T08:36:02.285Z,30.00
2022-08-10T08:38:33.505Z,30.10
2022-08-10T08:39:33.228Z,31.00
2022-08-10T08:41:26.967Z,30.00
2022-08-10T08:43:16.695Z,29.30
2022-08-10T08:45:03.097Z,30.80
2022-08-10T08:46:59.260Z,31.90
2022-08-10T08:48:47.440Z,32.40
2022-08-10T08:50:37.981Z,31.80
2022-08-10T08:52:22.818Z,30.00
2022-08-10T08:54:05.591Z,31.30
2022-08-10T08:56:05.439Z,31.00
2022-08-10T08:57:51.258Z,31.50
2022-08-10T08:59:38.406Z,32.50
2022-08-10T09:01:24.504Z,33.60
2022-08-10T09:03:47.249Z,33.70
2022-08-10T09:05:58.875Z,34.10
2022-08-10T09:08:02.840Z,31.80
2022-08-10T09:09:57.389Z,30.80
2022-08-10T09:11:51.819Z,30.30
2022-08-10T09:13:31.435Z,32.00
2022-08-10T09:15:09.939Z,32.80
2022-08-10T09:17:12.066Z,33.20
2022-08-10T09:18:52.255Z,33.70
2022-08-10T09:20:35.813Z,33.80
2022-08-10T09:22:19.332Z,31.40
2022-08-10T09:24:05.921Z,30.80
2022-08-10T09:25:45.185Z,31.00
2022-08-10T09:27:22.798Z,32.00
2022-08-10T09:29:12.250Z,33.70
2022-08-10T09:31:18.818Z,34.80
2022-08-10T09:36:13.563Z,34.00
2022-08-10T09:36:22.288Z,32.50
2022-08-10T09:36:57.110Z,33.60
2022-08-10T09:38:38.684Z,33.60
2022-08-10T09:41:00.074Z,34.00
2022-08-10T09:42:19.319Z,32.90
2022-08-10T09:44:07.208Z,31.00
2022-08-10T09:45:48.854Z,30.10
2022-08-10T09:47:58.687Z,29.40
2022-08-10T09:49:54.338Z,28.80
2022-08-10T09:51:46.312Z,28.30
2022-08-10T09:53:26.157Z,28.00
2022-08-10T09:55:11.132Z,28.00
2022-08-10T09:56:52.895Z,27.90
2022-08-10T09:58:37.586Z,27.80
2022-08-10T10:00:15.459Z,27.80
2022-08-10T10:02:02.417Z,27.90
2022-08-10T10:03:48.081Z,27.70
2022-08-10T10:05:34.051Z,27.70
2022-08-10T10:07:09.630Z,27.70
2022-08-10T10:08:53.721Z,27.90
2022-08-10T10:10:46.128Z,28.20
2022-08-10T10:12:28.075Z,28.00
2022-08-10T10:14:13.812Z,28.00
2022-08-10T10:15:57.929Z,27.70
2022-08-10T10:17:44.379Z,27.80
2022-08-10T10:19:30.730Z,28.00
2022-08-10T10:21:08.246Z,28.10
2022-08-10T10:22:57.660Z,28.20
2022-08-10T10:24:42.590Z,28.00
2022-08-10T10:26:22.084Z,27.90
2022-08-10T10:28:11.037Z,28.50
2022-08-10T10:29:58.566Z,29.00
2022-08-10T10:31:40.173Z,29.30
2022-08-10T10:33:16.484Z,29.20
2022-08-10T10:34:56.987Z,29.00
2022-08-10T10:36:31.587Z,29.20
2022-08-10T10:38:07.453Z,29.20
2022-08-10T10:39:44.653Z,29.80
2022-08-10T10:41:30.790Z,30.40
2022-08-10T10:43:41.013Z,30.90
2022-08-10T10:45:20.600Z,31.10
2022-08-10T10:46:59.315Z,31.00
2022-08-10T10:48:43.123Z,30.30
2022-08-10T10:50:23.297Z,31.60
2022-08-10T10:52:04.681Z,32.60
2022-08-10T10:53:45.351Z,33.90
2022-08-10T10:55:29.341Z,35.30
2022-08-10T10:57:08.464Z,34.60
2022-08-10T10:58:49.877Z,34.70
2022-08-10T11:00:27.058Z,34.30
2022-08-10T11:02:20.075Z,32.50
2022-08-10T11:04:10.041Z,32.50
2022-08-10T11:05:50.814Z,31.50
2022-08-10T11:07:31.817Z,29.70
2022-08-10T11:10:03.737Z,30.40
2022-08-10T11:11:21.629Z,31.20
2022-08-10T11:14:25.226Z,32.30
2022-08-10T11:15:27.945Z,32.40
2022-08-10T11:17:12.367Z,32.30
2022-08-10T11:18:59.958Z,32.80
2022-08-10T11:20:41.400Z,32.70
2022-08-10T11:22:21.136Z,32.60
2022-08-10T11:24:42.505Z,32.80
2022-08-10T11:26:09.016Z,33.80
2022-08-10T11:27:49.763Z,33.50
2022-08-10T11:29:30.601Z,32.70
2022-08-10T11:31:12.196Z,30.80
2022-08-10T11:33:11.569Z,31.00
2022-08-10T11:35:11.626Z,32.00
2022-08-10T11:36:56.479Z,32.40
2022-08-10T11:38:52.019Z,32.20
2022-08-10T11:40:38.325Z,32.20
2022-08-10T11:42:36.409Z,32.00
2022-08-10T11:44:13.253Z,32.20
2022-08-10T11:45:51.363Z,32.40
2022-08-10T11:47:45.962Z,32.10
2022-08-10T11:49:31.027Z,32.40
2022-08-10T11:51:07.423Z,32.30
2022-08-10T11:52:54.639Z,32.10
2022-08-10T11:54:32.207Z,31.70
2022-08-10T11:56:10.954Z,30.90
2022-08-10T11:57:53.453Z,30.70
2022-08-10T11:59:49.196Z,30.40
2022-08-10T12:01:28.625Z,30.20
2022-08-10T12:03:07.356Z,30.30
2022-08-10T12:04:46.479Z,30.30
2022-08-10T12:06:52.016Z,30.30
2022-08-10T12:10:07.578Z,30.30
2022-08-10T12:10:14.366Z,30.40
2022-08-10T12:11:50.317Z,30.60
2022-08-10T12:13:27.395Z,30.80
2022-08-10T12:15:04.595Z,30.90
2022-08-10T12:16:41.120Z,31.30
2022-08-10T12:18:18.325Z,31.30
2022-08-10T12:20:03.283Z,30.70
2022-08-10T12:21:41.769Z,31.20
2022-08-10T12:23:20.552Z,31.60
2022-08-10T12:24:58.923Z,32.50
2022-08-10T12:26:38.927Z,32.80
2022-08-10T12:28:17.758Z,32.90
2022-08-10T12:29:57.960Z,32.50
2022-08-10T12:31:38.802Z,31.80
2022-08-10T12:33:20.754Z,32.50
2022-08-10T12:35:01.253Z,33.00
2022-08-10T12:36:41.436Z,33.70
2022-08-10T12:38:22.002Z,33.60
2022-08-10T12:40:33.430Z,34.10
2022-08-10T12:42:06.114Z,33.90
2022-08-10T12:44:04.753Z,33.90
2022-08-10T12:45:41.011Z,33.60
2022-08-10T12:47:21.189Z,34.30
2022-08-10T12:49:04.060Z,34.50
2022-08-10T12:50:44.014Z,34.60
2022-08-10T12:52:21.373Z,34.40
2022-08-10T12:53:58.403Z,34.10
2022-08-10T12:55:33.407Z,33.90
2022-08-10T12:57:11.018Z,33.70
2022-08-10T12:58:59.275Z,32.40
2022-08-10T13:00:41.602Z,33.20
2022-08-10T13:02:30.617Z,33.90
2022-08-10T13:04:21.479Z,34.50
2022-08-10T13:06:02.868Z,34.80
2022-08-10T13:08:25.327Z,34.60
2022-08-10T13:09:32.626Z,34.00
2022-08-10T13:12:34.083Z,33.20
2022-08-10T13:13:03.622Z,33.00
2022-08-10T13:14:41.055Z,32.90
2022-08-10T13:16:14.800Z,33.30
2022-08-10T13:17:52.689Z,33.80
2022-08-10T13:19:29.064Z,34.10
2022-08-10T13:21:24.486Z,34.20
2022-08-10T13:23:01.043Z,34.80
2022-08-10T13:24:39.268Z,34.40
2022-08-10T13:26:16.024Z,34.50
2022-08-10T13:28:02.410Z,33.60
2022-08-10T13:29:52.871Z,33.60
2022-08-10T13:32:10.026Z,34.00
2022-08-10T13:34:40.043Z,33.70
2022-08-10T13:35:23.419Z,33.70
2022-08-10T13:37:02.441Z,34.00
2022-08-10T13:38:36.265Z,34.20
2022-08-10T13:40:12.853Z,34.50
2022-08-10T13:41:48.044Z,34.90
2022-08-10T13:43:22.281Z,35.10
2022-08-10T13:44:57.295Z,33.90
2022-08-10T13:46:32.214Z,34.30
2022-08-10T13:48:14.189Z,34.00
2022-08-10T13:49:50.308Z,34.80
2022-08-10T13:51:54.049Z,33.40
2022-08-10T13:53:21.923Z,33.10
2022-08-10T13:54:57.160Z,32.40
2022-08-10T13:56:32.890Z,32.30
2022-08-10T13:58:06.843Z,32.40
2022-08-10T14:00:36.267Z,32.80
2022-08-10T14:01:50.672Z,32.80
2022-08-10T14:03:25.436Z,32.70
2022-08-10T14:04:59.826Z,32.20
2022-08-10T14:06:34.566Z,32.20
2022-08-10T14:08:13.341Z,31.80
2022-08-10T14:09:50.546Z,31.90
2022-08-10T14:11:25.542Z,32.10
2022-08-10T14:13:03.109Z,32.40
2022-08-10T14:14:38.427Z,32.90
2022-08-10T14:16:11.993Z,33.00
2022-08-10T14:17:48.852Z,33.50
2022-08-10T14:19:25.148Z,32.60
2022-08-10T14:20:59.512Z,33.30
2022-08-10T14:22:34.468Z,33.20
2022-08-10T14:24:19.947Z,33.10
2022-08-10T14:25:57.527Z,32.50
2022-08-10T14:28:02.144Z,32.40
2022-08-10T14:29:27.488Z,32.60
2022-08-10T14:31:05.274Z,33.00
2022-08-10T14:32:46.121Z,33.20
2022-08-10T14:34:20.929Z,33.90
2022-08-10T14:36:24.389Z,33.70
2022-08-10T14:38:01.509Z,33.50
2022-08-10T14:39:42.614Z,33.30
2022-08-10T14:42:04.400Z,33.20
2022-08-10T14:43:28.908Z,31.50
2022-08-10T14:45:08.134Z,31.40
2022-08-10T14:46:47.065Z,31.80
2022-08-10T14:48:31.789Z,31.90
2022-08-10T14:50:08.610Z,31.80
2022-08-10T14:51:45.167Z,31.40
2022-08-10T14:53:20.808Z,31.10
2022-08-10T14:55:05.604Z,30.90
2022-08-10T14:56:54.864Z,31.20
2022-08-10T14:58:30.781Z,31.20
2022-08-10T15:00:25.031Z,31.00
2022-08-10T15:02:39.038Z,30.90
2022-08-10T15:04:02.784Z,30.20
2022-08-10T15:05:39.561Z,30.00
2022-08-10T15:07:25.876Z,29.80
2022-08-10T15:09:05.209Z,29.50
2022-08-10T15:10:51.123Z,29.20
2022-08-10T15:12:27.527Z,29.20
2022-08-10T15:14:41.156Z,29.10
2022-08-10T15:16:12.178Z,29.10
2022-08-10T15:17:50.988Z,29.20
2022-08-10T15:20:00.677Z,29.30
2022-08-10T15:21:29.080Z,29.30
2022-08-10T15:23:30.630Z,29.20
2022-08-10T15:25:04.794Z,29.10
2022-08-10T15:26:38.784Z,29.00
2022-08-10T15:28:31.388Z,28.90
2022-08-10T15:30:20.321Z,28.80
2022-08-10T15:32:11.391Z,28.80
2022-08-10T15:34:05.663Z,28.50
2022-08-10T15:35:58.051Z,28.60
2022-08-10T15:37:54.544Z,28.40
2022-08-10T15:40:24.726Z,28.40
2022-08-10T15:41:59.483Z,28.50
2022-08-10T15:43:34.441Z,28.50
2022-08-10T15:45:18.553Z,28.60
2022-08-10T15:46:57.648Z,28.60
2022-08-10T15:48:39.977Z,28.60
2022-08-10T15:50:18.499Z,28.70
2022-08-10T15:51:58.365Z,28.60
2022-08-10T15:53:49.851Z,28.60
2022-08-10T15:55:42.928Z,28.50
2022-08-10T15:57:21.939Z,28.40
2022-08-10T15:59:10.577Z,28.30
2022-08-10T16:00:50.159Z,28.30
2022-08-10T16:02:28.343Z,28.30
2022-08-10T16:04:08.316Z,28.20
2022-08-10T16:06:01.680Z,28.10
2022-08-10T16:07:46.074Z,28.00
2022-08-10T16:10:22.253Z,27.90
2022-08-10T16:11:25.379Z,27.80
2022-08-10T16:13:01.862Z,27.70
2022-08-10T16:14:39.205Z,27.70
2022-08-10T16:16:16.673Z,27.70
2022-08-10T16:17:54.589Z,27.70
2022-08-10T16:19:30.682Z,27.70
2022-08-10T16:21:07.021Z,27.60
2022-08-10T16:22:40.482Z,27.60
2022-08-10T16:24:16.358Z,27.70
2022-08-10T16:25:58.351Z,27.70
2022-08-10T16:27:38.231Z,27.70
2022-08-10T16:29:13.686Z,27.80
2022-08-10T16:30:51.648Z,27.80
2022-08-10T16:32:26.487Z,27.90
2022-08-10T16:34:01.629Z,27.80
2022-08-10T16:35:36.216Z,27.80
2022-08-10T16:37:12.160Z,27.80
2022-08-10T16:38:48.737Z,27.80
2022-08-10T16:40:23.880Z,27.70
2022-08-10T16:42:06.075Z,27.70
2022-08-10T16:43:40.160Z,27.60
2022-08-10T16:45:16.030Z,27.70
2022-08-10T16:46:51.272Z,27.70
2022-08-10T16:48:50.063Z,27.50
2022-08-10T16:50:25.374Z,27.40
2022-08-10T16:51:59.587Z,27.40
2022-08-10T16:53:36.419Z,27.40
2022-08-10T16:55:23.361Z,27.30
2022-08-10T16:57:02.784Z,27.30
2022-08-10T16:58:39.131Z,27.30
2022-08-10T17:00:13.913Z,27.20
2022-08-10T17:01:51.546Z,27.20
2022-08-10T17:04:05.589Z,27.20
2022-08-10T17:06:01.765Z,27.20
2022-08-10T17:07:30.730Z,27.00
2022-08-10T17:09:07.949Z,26.90
2022-08-10T17:10:42.220Z,26.90
2022-08-10T17:12:18.337Z,26.80
2022-08-10T17:13:54.929Z,26.80
2022-08-10T17:15:28.445Z,26.70
2022-08-10T17:17:07.467Z,26.60
2022-08-10T17:18:46.633Z,26.60
2022-08-10T17:20:31.024Z,26.40
2022-08-10T17:22:12.479Z,26.40
2022-08-10T17:23:49.143Z,26.40
2022-08-10T17:25:24.966Z,26.40
2022-08-10T17:28:05.031Z,26.40
2022-08-10T17:29:57.941Z,26.40
2022-08-10T17:31:42.894Z,26.40
2022-08-10T17:33:16.097Z,26.30
2022-08-10T17:34:57.105Z,26.20
2022-08-10T17:36:36.615Z,26.20
2022-08-10T17:38:11.895Z,26.00
2022-08-10T17:39:49.842Z,26.00
2022-08-10T17:41:25.131Z,25.90
2022-08-10T17:42:59.310Z,25.80
2022-08-10T17:44:36.723Z,25.70
2022-08-10T17:46:12.653Z,25.60
2022-08-10T17:47:49.558Z,25.50
2022-08-10T17:49:22.950Z,25.40
2022-08-10T17:50:59.167Z,25.30
2022-08-10T17:52:34.187Z,25.20
2022-08-10T17:54:10.247Z,24.90
2022-08-10T17:55:47.036Z,24.70
2022-08-10T17:57:22.272Z,24.50
2022-08-10T17:58:59.266Z,24.30
2022-08-10T18:00:33.916Z,24.10
2022-08-10T18:02:10.232Z,23.90
2022-08-10T18:03:44.173Z,23.70
2022-08-10T18:05:18.749Z,23.50
2022-08-10T18:06:58.464Z,23.30
2022-08-10T18:08:35.713Z,23.10
2022-08-10T18:10:11.677Z,22.90
2022-08-10T18:11:48.802Z,22.70
2022-08-10T18:13:22.918Z,22.60
2022-08-10T18:14:57.609Z,22.50
2022-08-10T18:16:33.179Z,22.40
2022-08-10T18:18:16.360Z,22.20
2022-08-10T18:19:55.413Z,22.20
2022-08-10T18:21:32.046Z,22.10
2022-08-10T18:23:08.856Z,22.00
2022-08-10T18:24:44.317Z,21.90
2022-08-10T18:26:21.040Z,21.80
2022-08-10T18:28:03.795Z,21.70
2022-08-10T18:29:42.924Z,21.60
2022-08-10T18:31:21.298Z,21.50
2022-08-10T18:32:57.369Z,21.50
2022-08-10T18:34:32.585Z,21.40
2022-08-10T18:36:08.691Z,21.40
2022-08-10T18:37:42.599Z,21.20
2022-08-10T18:39:22.893Z,21.20
2022-08-10T18:41:05.826Z,21.20
2022-08-10T18:42:47.287Z,21.10
2022-08-10T18:44:21.874Z,21.00
2022-08-10T18:45:57.604Z,20.90
2022-08-10T18:47:34.764Z,20.70
2022-08-10T18:49:13.219Z,20.60
2022-08-10T18:50:50.910Z,20.50
2022-08-10T18:52:27.802Z,20.40
2022-08-10T18:54:07.847Z,20.20
2022-08-10T18:56:12.609Z,20.20
2022-08-10T18:58:05.403Z,20.10
2022-08-10T19:00:08.663Z,20.00
2022-08-10T19:02:02.583Z,19.90
2022-08-10T19:03:54.655Z,19.90
2022-08-10T19:05:37.905Z,19.80
2022-08-10T19:07:31.439Z,19.70
2022-08-10T19:09:47.310Z,19.80
2022-08-10T19:11:18.783Z,19.90
2022-08-10T19:12:55.952Z,19.90
2022-08-10T19:14:35.841Z,19.90
2022-08-10T19:16:15.143Z,19.90
2022-08-10T19:18:06.463Z,19.90
2022-08-10T19:19:47.136Z,19.90
2022-08-10T19:21:24.293Z,19.90
2022-08-10T19:23:06.255Z,19.90
2022-08-10T19:24:49.248Z,19.90
2022-08-10T19:26:42.038Z,19.80
2022-08-10T19:28:44.562Z,19.80
2022-08-10T19:30:19.976Z,19.70
2022-08-10T19:31:59.852Z,19.70
2022-08-10T19:33:44.209Z,19.60
2022-08-10T19:35:26.167Z,19.70
2022-08-10T19:37:08.288Z,19.70
2022-08-10T19:38:50.901Z,19.60
2022-08-10T19:40:44.169Z,19.70
2022-08-10T19:42:31.191Z,19.70
2022-08-10T19:44:13.263Z,19.60
2022-08-10T19:46:02.385Z,19.50
2022-08-10T19:47:43.293Z,19.40
2022-08-10T19:49:28.597Z,19.30
2022-08-10T19:51:07.701Z,19.20
2022-08-10T19:52:49.421Z,19.10
2022-08-10T19:54:33.875Z,18.90
2022-08-10T19:56:33.197Z,18.90
2022-08-10T19:58:20.916Z,18.90
2022-08-10T20:00:16.680Z,18.90
2022-08-10T20:01:56.218Z,18.90
2022-08-10T20:03:38.483Z,18.70
2022-08-10T20:05:16.490Z,18.60
2022-08-10T20:06:58.250Z,18.50
2022-08-10T20:08:36.768Z,18.40
2022-08-10T20:10:15.931Z,18.30
2022-08-10T20:11:57.710Z,18.20
2022-08-10T20:13:44.950Z,18.10
2022-08-10T20:15:27.021Z,18.00
2022-08-10T20:17:04.282Z,17.90
2022-08-10T20:18:40.484Z,17.80
2022-08-10T20:20:15.524Z,17.70
2022-08-10T20:21:56.828Z,17.70
2022-08-10T20:23:34.972Z,17.50
2022-08-10T20:25:14.510Z,17.50
2022-08-10T20:26:54.075Z,17.40
2022-08-10T20:28:42.521Z,17.40
2022-08-10T20:30:16.771Z,17.40
2022-08-10T20:31:57.713Z,17.40
2022-08-10T20:33:35.528Z,17.40
2022-08-10T20:35:13.145Z,17.40
2022-08-10T20:36:57.002Z,17.40
2022-08-10T20:38:44.405Z,17.40
2022-08-10T20:40:24.418Z,17.30
2022-08-10T20:42:03.953Z,17.40
2022-08-10T20:43:48.403Z,17.30
2022-08-10T20:45:41.566Z,17.30
2022-08-10T20:47:36.093Z,17.20
2022-08-10T20:49:20.345Z,17.20
2022-08-10T20:50:58.689Z,17.20
2022-08-10T20:52:34.920Z,17.20
2022-08-10T20:54:12.188Z,17.40
2022-08-10T20:55:55.960Z,17.50
2022-08-10T20:57:55.608Z,17.60
2022-08-10T21:00:04.014Z,17.60
2022-08-10T21:02:06.183Z,17.70
2022-08-10T21:03:59.565Z,17.70
2022-08-10T21:05:42.043Z,17.60
2022-08-10T21:07:50.602Z,17.60
2022-08-10T21:10:00.010Z,17.50
2022-08-10T21:11:43.758Z,17.50
2022-08-10T21:13:45.622Z,17.30
2022-08-10T21:15:41.669Z,17.20
2022-08-10T21:17:37.405Z,17.10
2022-08-10T21:19:36.102Z,17.00
2022-08-10T21:21:41.842Z,17.00
2022-08-10T21:23:17.705Z,17.00
2022-08-10T21:24:59.410Z,17.00
2022-08-10T21:26:49.045Z,17.10
2022-08-10T21:28:44.816Z,17.10
2022-08-10T21:30:44.759Z,17.20
2022-08-10T21:32:24.525Z,17.20
2022-08-10T21:34:17.841Z,17.10
2022-08-10T21:35:56.306Z,17.10
2022-08-10T21:37:39.955Z,17.00
2022-08-10T21:39:22.060Z,16.90
2022-08-10T21:41:57.934Z,16.80
2022-08-10T21:43:59.010Z,16.60
2022-08-10T21:46:02.286Z,16.50
2022-08-10T21:48:17.233Z,16.30
2022-08-10T21:50:16.573Z,16.30
2022-08-10T21:52:16.165Z,16.20
2022-08-10T21:54:13.035Z,16.20